createdAt,value
2022-12-15T00:00:51.867Z,35.01
2022-12-15T00:03:47.973Z,34.87
2022-12-15T00:06:35.313Z,34.94
2022-12-15T00:09:29.306Z,34.89
2022-12-15T00:12:18.412Z,34.90
2022-12-15T00:15:05.129Z,34.63
2022-12-15T00:17:52.374Z,34.72
2022-12-15T00:20:39.273Z,34.92
2022-12-15T00:23:28.519Z,34.79
2022-12-15T00:26:16.806Z,34.94
2022-12-15T00:29:04.084Z,34.74
2022-12-15T00:31:50.858Z,35.11
2022-12-15T00:34:38.394Z,34.87
2022-12-15T00:37:25.543Z,35.05
2022-12-15T00:39:59.050Z,35.06
2022-12-15T00:42:29.130Z,34.97
2022-12-15T00:44:57.743Z,35.03
2022-12-15T00:47:26.398Z,35.12
2022-12-15T00:50:13.488Z,35.28
2022-12-15T00:53:00.424Z,34.81
2022-12-15T00:55:47.448Z,34.85
2022-12-15T00:58:34.158Z,34.65
2022-12-15T01:01:29.276Z,34.63
2022-12-15T01:04:16.411Z,34.23
2022-12-15T01:07:03.793Z,34.11
2022-12-15T01:09:50.648Z,34.06
2022-12-15T01:12:37.895Z,33.97
2022-12-15T01:15:25.350Z,33.89
2022-12-15T01:18:13.255Z,33.83
2022-12-15T01:20:41.578Z,33.95
2022-12-15T01:23:10.257Z,33.91
2022-12-15T01:25:39.847Z,34.02
2022-12-15T01:28:08.410Z,34.16
2022-12-15T01:30:36.640Z,34.02
2022-12-15T01:33:06.578Z,34.28
2022-12-15T01:35:35.062Z,34.10
2022-12-15T01:38:03.596Z,34.36
2022-12-15T01:40:47.221Z,34.25
2022-12-15T01:43:20.219Z,34.26
2022-12-15T01:46:04.626Z,34.45
2022-12-15T01:48:42.946Z,34.45
2022-12-15T01:51:27.834Z,34.36
2022-12-15T01:54:24.127Z,34.40
2022-12-15T01:57:01.144Z,34.62
2022-12-15T01:59:33.914Z,34.57
2022-12-15T02:02:03.425Z,34.50
2022-12-15T02:04:32.953Z,34.48
2022-12-15T02:07:01.166Z,34.27
2022-12-15T02:09:30.232Z,34.21
2022-12-15T02:12:16.695Z,33.82
2022-12-15T02:14:57.574Z,33.94
2022-12-15T02:17:37.495Z,33.74
2022-12-15T02:20:12.799Z,33.80
2022-12-15T02:23:11.683Z,33.66
2022-12-15T02:26:00.825Z,33.62
2022-12-15T02:28:38.136Z,33.27
2022-12-15T02:31:36.470Z,33.25
2022-12-15T02:34:43.484Z,33.38
2022-12-15T02:37:22.856Z,33.65
2022-12-15T02:39:51.093Z,33.78
2022-12-15T02:42:20.205Z,33.59
2022-12-15T02:45:20.285Z,33.49
2022-12-15T02:48:12.174Z,33.69
2022-12-15T02:50:51.573Z,33.72
2022-12-15T02:53:50.458Z,33.83
2022-12-15T02:56:26.605Z,33.98
2022-12-15T02:59:03.905Z,33.88
2022-12-15T03:01:46.648Z,34.04
2022-12-15T03:04:16.359Z,34.29
2022-12-15T03:06:44.577Z,34.32
2022-12-15T03:09:32.425Z,34.49
2022-12-15T03:12:01.173Z,34.22
2022-12-15T03:14:30.205Z,34.24
2022-12-15T03:16:58.487Z,34.26
2022-12-15T03:19:27.868Z,34.14
2022-12-15T03:21:56.625Z,33.86
2022-12-15T03:24:25.281Z,33.99
2022-12-15T03:26:53.722Z,33.71
2022-12-15T03:29:22.453Z,33.56
2022-12-15T03:31:50.742Z,33.54
2022-12-15T03:34:20.557Z,33.47
2022-12-15T03:36:48.994Z,33.15
2022-12-15T03:39:17.613Z,33.16
2022-12-15T03:41:45.913Z,33.18
2022-12-15T03:44:14.755Z,32.87
2022-12-15T03:46:42.936Z,33.09
2022-12-15T03:49:11.583Z,33.00
2022-12-15T03:51:40.582Z,33.09
2022-12-15T03:54:09.124Z,33.12
2022-12-15T03:56:37.347Z,33.26
2022-12-15T03:59:06.314Z,33.33
2022-12-15T04:01:36.934Z,33.45
2022-12-15T04:04:05.988Z,33.58
2022-12-15T04:06:34.275Z,33.55
2022-12-15T04:09:02.948Z,33.50
2022-12-15T04:11:31.163Z,33.80
2022-12-15T04:13:59.883Z,33.91
2022-12-15T04:16:28.304Z,33.93
2022-12-15T04:19:16.307Z,33.83
2022-12-15T04:21:44.528Z,34.05
2022-12-15T04:24:31.371Z,34.17
2022-12-15T04:27:17.838Z,34.13
2022-12-15T04:30:05.088Z,34.23
2022-12-15T04:32:52.107Z,34.08
2022-12-15T04:35:39.318Z,33.69
2022-12-15T04:38:25.940Z,33.74
2022-12-15T04:41:13.031Z,33.76
2022-12-15T04:44:00.388Z,33.66
2022-12-15T04:46:47.312Z,33.53
2022-12-15T04:49:34.363Z,33.56
2022-12-15T04:52:21.680Z,33.66
2022-12-15T04:55:08.962Z,33.54
2022-12-15T04:57:57.104Z,33.56
2022-12-15T05:00:44.444Z,33.89
2022-12-15T05:03:31.798Z,33.90
2022-12-15T05:06:18.993Z,33.89
2022-12-15T05:09:06.179Z,34.00
2022-12-15T05:11:53.148Z,34.19
2022-12-15T05:14:40.341Z,34.26
2022-12-15T05:17:27.779Z,34.39
2022-12-15T05:20:15.197Z,34.72
2022-12-15T05:23:01.909Z,34.54
2022-12-15T05:25:49.281Z,34.60
2022-12-15T05:28:36.814Z,34.85
2022-12-15T05:31:25.994Z,34.88
2022-12-15T05:34:04.524Z,35.25
2022-12-15T05:36:34.289Z,35.03
2022-12-15T05:39:02.606Z,35.26
2022-12-15T05:41:31.849Z,35.22
2022-12-15T05:44:00.703Z,35.29
2022-12-15T05:46:29.621Z,35.04
2022-12-15T05:48:57.971Z,34.96
2022-12-15T05:51:26.679Z,34.98
2022-12-15T05:53:55.078Z,34.76
2022-12-15T05:56:25.632Z,34.82
2022-12-15T05:58:53.960Z,34.69
2022-12-15T06:01:25.371Z,34.66
2022-12-15T06:03:53.764Z,34.57
2022-12-15T06:06:22.661Z,34.55
2022-12-15T06:08:51.030Z,34.57
2022-12-15T06:11:21.059Z,34.43
2022-12-15T06:13:49.730Z,34.47
2022-12-15T06:16:21.521Z,34.80
2022-12-15T06:18:54.589Z,34.80
2022-12-15T06:21:25.841Z,34.73
2022-12-15T06:23:57.086Z,34.87
2022-12-15T06:26:39.458Z,35.04
2022-12-15T06:29:10.800Z,35.00
2022-12-15T06:31:41.273Z,35.04
2022-12-15T06:34:13.287Z,35.33
2022-12-15T06:36:43.265Z,35.46
2022-12-15T06:39:13.712Z,35.30
2022-12-15T06:41:44.125Z,35.27
2022-12-15T06:44:14.857Z,35.39
2022-12-15T06:46:43.911Z,35.82
2022-12-15T06:49:12.570Z,35.88
2022-12-15T06:51:42.350Z,35.89
2022-12-15T06:54:11.715Z,35.77
2022-12-15T06:56:40.509Z,35.90
2022-12-15T06:59:10.320Z,35.64
2022-12-15T07:01:39.376Z,35.52
2022-12-15T07:04:08.101Z,35.16
2022-12-15T07:06:38.769Z,35.27
2022-12-15T07:09:11.151Z,35.26
2022-12-15T07:11:41.008Z,35.02
2022-12-15T07:14:10.050Z,35.02
2022-12-15T07:16:39.274Z,34.90
2022-12-15T07:19:11.982Z,34.89
2022-12-15T07:21:41.649Z,34.91
2022-12-15T07:24:12.279Z,34.86
2022-12-15T07:26:43.230Z,34.73
2022-12-15T07:29:12.199Z,34.91
2022-12-15T07:31:41.102Z,35.21
2022-12-15T07:34:09.496Z,35.09
2022-12-15T07:36:39.332Z,35.24
2022-12-15T07:39:10.764Z,35.39
2022-12-15T07:41:40.795Z,35.53
2022-12-15T07:44:09.220Z,35.64
2022-12-15T07:46:38.066Z,35.65
2022-12-15T07:49:06.621Z,35.69
2022-12-15T07:51:35.361Z,35.95
2022-12-15T07:54:04.086Z,36.02
2022-12-15T07:56:38.882Z,35.98
2022-12-15T07:59:08.621Z,36.10
2022-12-15T08:01:37.688Z,36.30
2022-12-15T08:04:07.311Z,36.18
2022-12-15T08:06:37.340Z,36.22
2022-12-15T08:09:05.821Z,36.05
2022-12-15T08:11:35.508Z,35.94
2022-12-15T08:14:06.921Z,35.72
2022-12-15T08:16:39.454Z,35.56
2022-12-15T08:19:11.740Z,35.34
2022-12-15T08:21:41.105Z,35.42
2022-12-15T08:24:10.480Z,35.09
2022-12-15T08:26:39.307Z,35.11
2022-12-15T08:29:48.836Z,35.16
2022-12-15T08:32:02.372Z,34.91
2022-12-15T08:34:31.079Z,34.70
2022-12-15T08:36:59.566Z,34.92
2022-12-15T08:39:28.569Z,34.98
2022-12-15T08:41:56.916Z,34.99
2022-12-15T08:44:25.457Z,35.15
2022-12-15T08:46:53.919Z,35.17
2022-12-15T08:49:22.804Z,35.25
2022-12-15T08:51:51.968Z,35.53
2022-12-15T08:54:21.773Z,35.03
2022-12-15T08:56:50.439Z,35.30
2022-12-15T08:59:20.459Z,35.54
2022-12-15T09:01:49.231Z,35.83
2022-12-15T09:04:19.420Z,35.80
2022-12-15T09:06:50.852Z,35.96
2022-12-15T09:09:20.040Z,35.80
2022-12-15T09:11:48.917Z,36.01
2022-12-15T09:14:21.589Z,35.91
2022-12-15T09:16:54.143Z,36.12
2022-12-15T09:19:23.013Z,36.08
2022-12-15T09:21:51.322Z,36.11
2022-12-15T09:24:28.887Z,35.93
2022-12-15T09:27:03.566Z,36.09
2022-12-15T09:29:33.001Z,36.02
2022-12-15T09:32:01.786Z,35.60
2022-12-15T09:34:30.627Z,35.56
2022-12-15T09:36:59.366Z,35.57
2022-12-15T09:39:28.179Z,35.42
2022-12-15T09:42:00.203Z,35.23
2022-12-15T09:44:30.835Z,35.03
2022-12-15T09:47:12.291Z,34.95
2022-12-15T09:49:56.999Z,34.62
2022-12-15T09:52:46.689Z,34.67
2022-12-15T09:55:24.478Z,34.73
2022-12-15T09:57:56.029Z,35.03
2022-12-15T10:00:55.644Z,35.01
2022-12-15T10:03:37.287Z,35.01
2022-12-15T10:09:21.879Z,35.26
2022-12-15T10:11:59.696Z,35.45
2022-12-15T10:14:49.831Z,35.25
2022-12-15T10:17:28.825Z,35.52
2022-12-15T10:20:06.087Z,35.60
2022-12-15T10:22:37.398Z,35.75
2022-12-15T10:25:30.441Z,35.71
2022-12-15T10:28:18.108Z,35.92
2022-12-15T10:31:00.098Z,36.21
2022-12-15T10:33:36.798Z,36.16
2022-12-15T10:36:14.280Z,36.28
2022-12-15T10:38:50.236Z,35.92
2022-12-15T10:41:26.816Z,35.87
2022-12-15T10:43:56.475Z,35.62
2022-12-15T10:46:29.956Z,35.80
2022-12-15T10:49:02.731Z,35.58
2022-12-15T10:51:45.645Z,35.33
2022-12-15T10:54:15.936Z,35.15
2022-12-15T10:56:55.517Z,35.15
2022-12-15T10:59:28.889Z,34.98
2022-12-15T11:02:02.542Z,35.54
2022-12-15T11:04:32.732Z,35.16
2022-12-15T11:07:02.860Z,35.09
2022-12-15T11:09:37.208Z,35.91
2022-12-15T11:12:42.485Z,35.25
2022-12-15T11:15:41.729Z,35.50
2022-12-15T11:18:30.385Z,35.69
2022-12-15T11:21:21.975Z,35.84
2022-12-15T11:24:16.043Z,35.67
2022-12-15T11:27:17.712Z,35.92
2022-12-15T11:29:57.719Z,36.04
2022-12-15T11:32:34.796Z,36.11
2022-12-15T11:35:03.548Z,36.07
2022-12-15T11:37:39.649Z,36.06
2022-12-15T11:40:31.208Z,36.40
2022-12-15T11:43:19.586Z,36.33
2022-12-15T11:46:17.798Z,36.13
2022-12-15T11:49:05.085Z,36.28
2022-12-15T11:52:25.900Z,35.83
2022-12-15T11:55:00.341Z,36.00
2022-12-15T11:57:46.978Z,35.65
2022-12-15T12:00:22.091Z,35.58
2022-12-15T12:03:01.345Z,35.58
2022-12-15T12:05:48.887Z,35.78
2022-12-15T12:08:26.326Z,35.65
2022-12-15T12:11:14.159Z,35.80
2022-12-15T12:14:12.590Z,36.02
2022-12-15T12:16:52.986Z,36.27
2022-12-15T12:19:50.921Z,36.50
2022-12-15T12:22:25.891Z,36.40
2022-12-15T12:25:15.715Z,36.50
2022-12-15T12:27:55.635Z,36.72
2022-12-15T12:30:28.791Z,36.82
2022-12-15T12:33:19.693Z,36.96
2022-12-15T12:35:59.998Z,37.13
2022-12-15T12:38:35.370Z,37.06
2022-12-15T12:41:13.292Z,37.47
2022-12-15T12:43:50.353Z,37.46
2022-12-15T12:46:28.277Z,37.64
2022-12-15T12:49:08.369Z,37.30
2022-12-15T12:51:42.387Z,37.43
2022-12-15T12:54:40.511Z,37.29
2022-12-15T12:57:11.995Z,37.00
2022-12-15T12:59:48.931Z,36.94
2022-12-15T13:02:26.075Z,36.75
2022-12-15T13:05:00.293Z,36.37
2022-12-15T13:07:30.437Z,36.21
2022-12-15T13:10:09.244Z,36.18
2022-12-15T13:12:56.114Z,36.35
2022-12-15T13:15:27.980Z,36.33
2022-12-15T13:18:15.394Z,36.26
2022-12-15T13:20:48.839Z,36.30
2022-12-15T13:23:22.216Z,36.47
2022-12-15T13:25:56.799Z,36.55
2022-12-15T13:28:40.204Z,36.46
2022-12-15T13:31:21.593Z,36.71
2022-12-15T13:33:53.086Z,37.01
2022-12-15T13:36:39.884Z,37.15
2022-12-15T13:39:17.210Z,37.25
2022-12-15T13:42:07.909Z,37.16
2022-12-15T13:44:40.968Z,37.44
2022-12-15T13:47:17.408Z,37.43
2022-12-15T13:50:15.117Z,37.70
2022-12-15T13:55:40.401Z,37.92
2022-12-15T13:58:16.740Z,38.06
2022-12-15T14:01:03.994Z,38.09
2022-12-15T14:03:33.523Z,38.23
2022-12-15T14:06:02.159Z,38.17
2022-12-15T14:08:33.269Z,38.06
2022-12-15T14:13:54.390Z,37.62
2022-12-15T14:16:23.969Z,37.56
2022-12-15T14:19:15.084Z,37.36
2022-12-15T14:21:58.943Z,37.40
2022-12-15T14:24:41.280Z,37.62
2022-12-15T14:27:09.700Z,37.47
2022-12-15T14:29:38.469Z,37.49
2022-12-15T14:32:08.555Z,37.80
2022-12-15T14:34:40.222Z,37.94
2022-12-15T14:37:13.831Z,38.05
2022-12-15T14:39:45.220Z,38.13
2022-12-15T14:42:24.235Z,38.09
2022-12-15T14:44:57.800Z,38.12
2022-12-15T14:47:29.895Z,38.31
2022-12-15T14:50:01.672Z,38.42
2022-12-15T14:52:34.201Z,38.60
2022-12-15T14:55:23.203Z,38.54
2022-12-15T14:57:52.979Z,38.51
2022-12-15T15:00:37.673Z,38.54
2022-12-15T15:03:11.323Z,35.15
2022-12-15T15:03:34.897Z,38.66
2022-12-15T15:06:17.852Z,38.69
2022-12-15T15:08:48.613Z,38.85
2022-12-15T15:11:18.484Z,38.43
2022-12-15T15:13:47.502Z,38.27
2022-12-15T15:16:19.347Z,38.14
2022-12-15T15:18:53.660Z,38.05
2022-12-15T15:21:25.713Z,37.81
2022-12-15T15:24:12.276Z,38.06
2022-12-15T15:26:41.105Z,37.70
2022-12-15T15:29:39.392Z,37.67
2022-12-15T15:32:21.435Z,37.83
2022-12-15T15:34:49.984Z,37.77
2022-12-15T15:37:24.499Z,37.92
2022-12-15T15:39:54.848Z,38.04
2022-12-15T15:42:27.918Z,37.94
2022-12-15T15:45:00.732Z,38.24
2022-12-15T15:47:29.441Z,38.12
2022-12-15T15:49:59.797Z,38.23
2022-12-15T15:52:32.397Z,38.29
2022-12-15T15:55:03.968Z,38.62
2022-12-15T15:57:35.103Z,38.41
2022-12-15T16:00:14.343Z,38.77
2022-12-15T16:02:43.395Z,38.76
2022-12-15T16:05:12.196Z,38.84
2022-12-15T16:07:43.268Z,38.96
2022-12-15T16:10:17.868Z,38.76
2022-12-15T16:12:53.459Z,38.76
2022-12-15T16:15:27.253Z,38.68
2022-12-15T16:17:57.106Z,38.58
2022-12-15T16:20:30.161Z,38.36
2022-12-15T16:23:01.643Z,38.21
2022-12-15T16:25:39.017Z,38.07
2022-12-15T16:28:15.255Z,37.98
2022-12-15T16:30:47.249Z,37.95
2022-12-15T16:38:31.204Z,37.96
2022-12-15T16:41:08.547Z,38.06
2022-12-15T16:43:41.528Z,37.94
2022-12-15T16:46:15.689Z,38.24
2022-12-15T16:48:44.679Z,38.31
2022-12-15T16:51:40.462Z,38.17
2022-12-15T16:58:35.642Z,39.17
2022-12-15T17:01:04.473Z,39.09
2022-12-15T17:03:33.362Z,39.13
2022-12-15T17:06:05.306Z,39.34
2022-12-15T17:08:44.218Z,39.57
2022-12-15T17:11:17.716Z,39.63
2022-12-15T17:13:51.650Z,39.50
2022-12-15T17:16:21.415Z,39.87
2022-12-15T17:18:51.816Z,39.96
2022-12-15T17:21:22.190Z,39.80
2022-12-15T17:23:53.935Z,39.68
2022-12-15T17:26:29.086Z,39.96
2022-12-15T17:29:06.718Z,39.69
2022-12-15T17:31:36.151Z,39.65
2022-12-15T17:34:31.945Z,39.48
2022-12-15T17:37:03.333Z,39.31
2022-12-15T17:39:34.537Z,39.32
2022-12-15T17:42:03.453Z,39.17
2022-12-15T17:44:37.844Z,39.03
2022-12-15T17:47:08.588Z,38.81
2022-12-15T17:49:38.955Z,39.17
2022-12-15T17:52:19.469Z,39.03
2022-12-15T17:54:48.078Z,39.00
2022-12-15T17:57:16.387Z,39.33
2022-12-15T17:59:45.029Z,39.32
2022-12-15T18:02:14.574Z,39.32
2022-12-15T18:04:44.132Z,39.37
2022-12-15T18:07:17.527Z,39.32
2022-12-15T18:09:46.630Z,39.81
2022-12-15T18:12:23.117Z,40.36
2022-12-15T18:14:52.862Z,40.26
2022-12-15T18:17:21.285Z,40.35
2022-12-15T18:19:49.840Z,40.80
2022-12-15T18:22:23.904Z,41.26
2022-12-15T18:24:53.980Z,41.42
2022-12-15T18:27:27.591Z,41.63
2022-12-15T18:29:56.836Z,41.95
2022-12-15T18:32:26.566Z,42.74
2022-12-15T18:34:55.480Z,43.08
2022-12-15T18:37:25.288Z,43.60
2022-12-15T18:39:58.319Z,42.73
2022-12-15T18:42:32.485Z,43.58
2022-12-15T18:45:02.661Z,43.49
2022-12-15T18:47:30.938Z,42.95
2022-12-15T18:49:59.872Z,43.53
2022-12-15T18:52:33.103Z,43.06
2022-12-15T18:55:03.346Z,43.30
2022-12-15T18:57:33.640Z,43.22
2022-12-15T19:00:27.973Z,42.88
2022-12-15T19:02:58.396Z,42.83
2022-12-15T19:05:29.139Z,42.78
2022-12-15T19:08:10.489Z,43.07
2022-12-15T19:10:56.166Z,43.25
2022-12-15T19:13:31.928Z,43.20
2022-12-15T19:16:03.380Z,43.47
2022-12-15T19:18:50.528Z,43.42
2022-12-15T19:21:45.390Z,43.54
2022-12-15T19:24:16.953Z,43.55
2022-12-15T19:26:45.414Z,43.88
2022-12-15T19:29:22.652Z,43.69
2022-12-15T19:31:52.192Z,43.99
2022-12-15T19:34:21.130Z,43.97
2022-12-15T19:36:49.618Z,43.94
2022-12-15T19:39:24.024Z,44.04
2022-12-15T19:41:53.619Z,44.02
2022-12-15T19:44:23.389Z,44.05
2022-12-15T19:46:52.613Z,43.97
2022-12-15T19:49:20.775Z,44.10
2022-12-15T19:51:49.519Z,44.13
2022-12-15T19:54:21.585Z,44.28
2022-12-15T19:56:50.140Z,44.47
2022-12-15T19:59:22.534Z,44.18
2022-12-15T20:01:54.372Z,43.95
2022-12-15T20:04:24.642Z,43.49
2022-12-15T20:06:54.581Z,43.21
2022-12-15T20:09:22.945Z,43.16
2022-12-15T20:11:51.366Z,42.82
2022-12-15T20:14:19.576Z,42.52
2022-12-15T20:16:50.598Z,42.18
2022-12-15T20:19:19.397Z,42.17
2022-12-15T20:21:47.900Z,42.07
2022-12-15T20:24:19.057Z,42.09
2022-12-15T20:26:48.806Z,42.06
2022-12-15T20:29:26.495Z,42.05
2022-12-15T20:31:55.951Z,42.01
2022-12-15T20:34:25.149Z,42.09
2022-12-15T20:36:53.555Z,42.56
2022-12-15T20:39:27.577Z,42.07
2022-12-15T20:41:56.854Z,42.51
2022-12-15T20:44:25.305Z,42.61
2022-12-15T20:46:53.857Z,42.53
2022-12-15T20:49:23.005Z,42.60
2022-12-15T20:51:52.007Z,42.43
2022-12-15T20:54:22.517Z,42.64
2022-12-15T20:56:51.419Z,42.71
2022-12-15T20:59:20.428Z,42.63
2022-12-15T21:01:49.825Z,42.52
2022-12-15T21:04:26.064Z,42.52
2022-12-15T21:06:56.554Z,42.50
2022-12-15T21:09:25.401Z,41.87
2022-12-15T21:11:56.595Z,42.02
2022-12-15T21:14:25.159Z,41.63
2022-12-15T21:16:53.894Z,41.36
2022-12-15T21:19:23.166Z,41.10
2022-12-15T21:21:55.592Z,40.91
2022-12-15T21:24:28.678Z,40.73
2022-12-15T21:26:57.968Z,40.71
2022-12-15T21:29:28.412Z,40.68
2022-12-15T21:31:57.518Z,40.84
2022-12-15T21:34:25.835Z,41.09
2022-12-15T21:36:54.959Z,41.10
2022-12-15T21:39:30.021Z,41.10
2022-12-15T21:42:01.940Z,41.23
2022-12-15T21:44:30.288Z,41.05
2022-12-15T21:46:58.920Z,41.19
2022-12-15T21:49:27.342Z,41.45
2022-12-15T21:51:58.184Z,41.63
2022-12-15T21:54:31.391Z,41.71
2022-12-15T21:57:00.912Z,41.67
2022-12-15T21:59:31.800Z,41.68
2022-12-15T22:02:01.968Z,41.67
2022-12-15T22:04:33.158Z,41.73
2022-12-15T22:07:02.028Z,42.04
2022-12-15T22:09:30.280Z,42.12
2022-12-15T22:11:59.089Z,42.18
2022-12-15T22:14:33.353Z,41.99
2022-12-15T22:17:14.901Z,42.05
2022-12-15T22:19:43.447Z,41.90
2022-12-15T22:22:14.304Z,42.06
2022-12-15T22:24:43.214Z,42.03
2022-12-15T22:27:32.565Z,42.08
2022-12-15T22:30:00.763Z,42.34
2022-12-15T22:32:30.587Z,42.52
2022-12-15T22:34:58.771Z,42.37
2022-12-15T22:37:27.293Z,42.44
2022-12-15T22:39:55.495Z,42.65
2022-12-15T22:42:25.139Z,42.57
2022-12-15T22:44:54.850Z,42.01
2022-12-15T22:47:23.591Z,42.42
2022-12-15T22:49:51.882Z,42.55
2022-12-15T22:52:21.371Z,42.53
2022-12-15T22:55:15.053Z,42.80
2022-12-15T22:57:53.002Z,42.76
2022-12-15T23:00:21.390Z,42.76
2022-12-15T23:02:50.049Z,42.83
2022-12-15T23:05:20.576Z,43.15
2022-12-15T23:07:49.220Z,43.11
2022-12-15T23:10:37.799Z,43.17
2022-12-15T23:13:06.566Z,42.97
2022-12-15T23:15:53.141Z,43.22
2022-12-15T23:18:23.365Z,43.24
2022-12-15T23:20:51.894Z,43.45
2022-12-15T23:23:20.469Z,43.27
2022-12-15T23:25:48.696Z,43.32
2022-12-15T23:28:17.209Z,43.74
2022-12-15T23:30:52.087Z,43.72
2022-12-15T23:33:21.276Z,43.61
2022-12-15T23:35:49.519Z,43.87
2022-12-15T23:38:19.176Z,43.85
2022-12-15T23:40:52.832Z,43.82
2022-12-15T23:43:23.830Z,43.92
2022-12-15T23:46:00.800Z,43.89
2022-12-15T23:48:31.832Z,44.16
2022-12-15T23:51:14.992Z,43.99
2022-12-15T23:53:44.511Z,43.90
2022-12-15T23:56:18.833Z,44.10
2022-12-15T23:58:57.963Z,44.17
